createdAt,value
2023-04-29T00:00:16.037Z,98589.38
2023-04-29T00:03:03.060Z,98587.77
2023-04-29T00:05:30.462Z,98589.40
2023-04-29T00:07:57.536Z,98586.36
2023-04-29T00:10:24.491Z,98586.00
2023-04-29T00:12:51.452Z,98585.99
2023-04-29T00:15:18.409Z,98583.27
2023-04-29T00:17:45.828Z,98575.18
2023-04-29T00:20:13.150Z,98581.41
2023-04-29T00:22:40.163Z,98581.03
2023-04-29T00:25:07.530Z,98578.14
2023-04-29T00:27:34.574Z,98571.58
2023-04-29T00:30:01.625Z,98568.53
2023-04-29T00:32:29.052Z,98565.59
2023-04-29T00:34:56.963Z,98564.77
2023-04-29T00:37:23.922Z,98568.83
2023-04-29T00:39:51.006Z,98561.77
2023-04-29T00:42:18.227Z,98565.75
2023-04-29T00:44:45.380Z,98560.23
2023-04-29T00:47:12.947Z,98556.52
2023-04-29T00:49:39.996Z,98555.66
2023-04-29T00:52:07.871Z,98554.15
2023-04-29T00:54:35.125Z,98554.37
2023-04-29T00:57:03.614Z,98550.41
2023-04-29T00:59:32.032Z,98550.41
2023-04-29T01:02:03.557Z,98548.98
2023-04-29T01:04:31.119Z,98550.77
2023-04-29T01:07:06.051Z,98551.84
2023-04-29T01:09:33.205Z,98551.41
2023-04-29T01:12:19.190Z,98548.19
2023-04-29T01:14:48.287Z,98550.41
2023-04-29T01:17:17.900Z,98549.16
2023-04-29T01:19:50.078Z,98548.16
2023-04-29T01:22:21.421Z,98545.91
2023-04-29T01:24:49.299Z,98545.02
2023-04-29T01:27:18.698Z,98544.90
2023-04-29T01:30:08.599Z,98544.11
2023-04-29T01:32:38.629Z,98542.86
2023-04-29T01:35:14.035Z,98543.38
2023-04-29T01:37:46.822Z,98545.27
2023-04-29T01:40:14.288Z,98547.45
2023-04-29T01:42:52.599Z,98551.06
2023-04-29T01:45:21.297Z,98555.69
2023-04-29T01:47:50.618Z,98553.85
2023-04-29T01:50:17.748Z,98557.90
2023-04-29T01:52:44.797Z,98557.46
2023-04-29T01:55:12.059Z,98556.22
2023-04-29T01:57:46.580Z,98556.17
2023-04-29T02:00:20.490Z,98555.37
2023-04-29T02:02:50.055Z,98552.95
2023-04-29T02:05:39.987Z,98551.31
2023-04-29T02:08:07.437Z,98549.95
2023-04-29T02:10:37.666Z,98550.97
2023-04-29T02:13:13.314Z,98546.33
2023-04-29T02:15:40.573Z,98543.02
2023-04-29T02:18:08.086Z,98546.55
2023-04-29T02:20:35.393Z,98544.02
2023-04-29T02:23:05.213Z,98544.02
2023-04-29T02:25:32.175Z,98544.40
2023-04-29T02:27:59.116Z,98540.41
2023-04-29T02:30:26.475Z,98537.63
2023-04-29T02:32:54.001Z,98537.78
2023-04-29T02:35:21.299Z,98533.11
2023-04-29T02:37:48.656Z,98531.05
2023-04-29T02:40:16.019Z,98531.65
2023-04-29T02:42:42.866Z,98531.75
2023-04-29T02:45:10.334Z,98529.23
2023-04-29T02:47:37.624Z,98526.89
2023-04-29T02:50:05.569Z,98522.98
2023-04-29T02:52:32.820Z,98523.27
2023-04-29T02:54:59.874Z,98514.47
2023-04-29T02:57:29.177Z,98516.84
2023-04-29T02:59:57.074Z,98513.95
2023-04-29T03:02:24.326Z,98512.77
2023-04-29T03:04:52.389Z,98509.23
2023-04-29T03:07:20.465Z,98508.29
2023-04-29T03:09:47.514Z,98512.39
2023-04-29T03:12:16.353Z,98513.88
2023-04-29T03:14:43.372Z,98516.90
2023-04-29T03:17:10.413Z,98513.65
2023-04-29T03:19:37.669Z,98521.33
2023-04-29T03:22:04.823Z,98520.66
2023-04-29T03:24:32.183Z,98522.46
2023-04-29T03:27:02.204Z,98521.11
2023-04-29T03:29:29.151Z,98524.29
2023-04-29T03:31:56.519Z,98522.02
2023-04-29T03:34:24.174Z,98522.27
2023-04-29T03:37:02.998Z,98520.73
2023-04-29T03:39:32.115Z,98520.42
2023-04-29T03:41:59.357Z,98525.81
2023-04-29T03:44:26.823Z,98522.88
2023-04-29T03:46:55.406Z,98522.84
2023-04-29T03:49:23.277Z,98518.22
2023-04-29T03:51:50.432Z,98517.06
2023-04-29T03:54:18.508Z,98519.73
2023-04-29T03:56:45.668Z,98517.38
2023-04-29T03:59:12.817Z,98520.70
2023-04-29T04:01:40.450Z,98521.09
2023-04-29T04:04:07.850Z,98524.56
2023-04-29T04:06:36.640Z,98523.53
2023-04-29T04:09:03.690Z,98526.19
2023-04-29T04:11:32.994Z,98531.86
2023-04-29T04:14:03.841Z,98531.45
2023-04-29T04:16:30.913Z,98527.70
2023-04-29T04:18:58.759Z,98529.09
2023-04-29T04:21:27.044Z,98526.26
2023-04-29T04:23:59.644Z,98522.63
2023-04-29T04:26:28.513Z,98521.22
2023-04-29T04:29:02.016Z,98522.03
2023-04-29T04:31:34.144Z,98525.87
2023-04-29T04:34:01.144Z,98523.51
2023-04-29T04:36:28.813Z,98518.98
2023-04-29T04:38:56.179Z,98522.38
2023-04-29T04:41:23.216Z,98516.69
2023-04-29T04:43:52.529Z,98522.09
2023-04-29T04:46:43.016Z,98524.38
2023-04-29T04:49:15.899Z,98525.42
2023-04-29T04:51:49.094Z,98529.57
2023-04-29T04:54:16.049Z,98530.96
2023-04-29T04:56:43.506Z,98527.45
2023-04-29T04:59:10.462Z,98525.56
2023-04-29T05:01:38.726Z,98526.63
2023-04-29T05:04:05.911Z,98524.08
2023-04-29T05:06:33.046Z,98521.27
2023-04-29T05:09:00.202Z,98524.16
2023-04-29T05:11:27.152Z,98524.23
2023-04-29T05:14:26.749Z,98519.27
2023-04-29T05:16:58.002Z,98521.73
2023-04-29T05:19:25.064Z,98522.37
2023-04-29T05:21:52.640Z,98516.13
2023-04-29T05:24:20.288Z,98510.12
2023-04-29T05:26:49.586Z,98510.40
2023-04-29T05:29:16.538Z,98510.61
2023-04-29T05:31:49.839Z,98510.14
2023-04-29T05:34:17.721Z,98513.33
2023-04-29T05:36:44.764Z,98512.80
2023-04-29T05:39:11.719Z,98509.13
2023-04-29T05:41:39.277Z,98506.23
2023-04-29T05:44:23.828Z,98506.29
2023-04-29T05:46:51.496Z,98507.45
2023-04-29T05:49:18.959Z,98502.61
2023-04-29T05:51:46.525Z,98505.95
2023-04-29T05:54:13.884Z,98503.52
2023-04-29T05:56:41.341Z,98502.53
2023-04-29T05:59:09.421Z,98499.83
2023-04-29T06:01:36.472Z,98499.83
2023-04-29T06:04:03.710Z,98497.19
2023-04-29T06:06:56.222Z,98496.71
2023-04-29T06:09:42.354Z,98498.08
2023-04-29T06:12:10.637Z,98492.55
2023-04-29T06:14:37.791Z,98487.62
2023-04-29T06:17:05.155Z,98484.92
2023-04-29T06:19:33.225Z,98481.81
2023-04-29T06:22:00.281Z,98487.16
2023-04-29T06:24:27.345Z,98484.22
2023-04-29T06:26:54.388Z,98487.98
2023-04-29T06:29:21.443Z,98487.73
2023-04-29T06:31:48.495Z,98483.00
2023-04-29T06:34:15.660Z,98482.15
2023-04-29T06:37:05.723Z,98480.11
2023-04-29T06:40:11.381Z,98476.30
2023-04-29T06:42:56.934Z,98482.30
2023-04-29T06:45:46.088Z,98480.37
2023-04-29T06:48:32.902Z,98477.67
2023-04-29T06:51:00.095Z,98479.59
2023-04-29T06:53:27.516Z,98476.17
2023-04-29T06:55:54.589Z,98479.11
2023-04-29T06:58:21.518Z,98479.55
2023-04-29T07:00:49.837Z,98472.06
2023-04-29T07:03:18.208Z,98472.95
2023-04-29T07:05:45.478Z,98469.02
2023-04-29T07:08:12.804Z,98466.77
2023-04-29T07:10:40.983Z,98465.09
2023-04-29T07:13:07.941Z,98464.69
2023-04-29T07:15:35.395Z,98467.64
2023-04-29T07:18:06.463Z,98463.96
2023-04-29T07:20:35.946Z,98470.79
2023-04-29T07:23:03.003Z,98468.19
2023-04-29T07:25:30.566Z,98470.79
2023-04-29T07:27:57.424Z,98467.86
2023-04-29T07:30:25.742Z,98467.31
2023-04-29T07:32:52.800Z,98464.56
2023-04-29T07:35:20.414Z,98461.79
2023-04-29T07:37:47.870Z,98459.45
2023-04-29T07:40:15.028Z,98459.50
2023-04-29T07:42:42.803Z,98452.48
2023-04-29T07:45:10.187Z,98450.19
2023-04-29T07:47:37.248Z,98447.90
2023-04-29T07:50:04.804Z,98448.60
2023-04-29T07:52:31.831Z,98446.02
2023-04-29T07:54:58.877Z,98443.41
2023-04-29T07:57:26.137Z,98445.39
2023-04-29T07:59:53.721Z,98442.36
2023-04-29T08:02:21.191Z,98442.03
2023-04-29T08:04:51.134Z,98446.77
2023-04-29T08:07:18.571Z,98446.91
2023-04-29T08:09:45.687Z,98446.09
2023-04-29T08:12:12.957Z,98443.75
2023-04-29T08:14:40.760Z,98434.69
2023-04-29T08:17:07.839Z,98439.65
2023-04-29T08:19:35.319Z,98436.98
2023-04-29T08:22:03.657Z,98433.71
2023-04-29T08:24:30.782Z,98433.74
2023-04-29T08:26:58.860Z,98437.47
2023-04-29T08:29:26.082Z,98434.13
2023-04-29T08:31:53.356Z,98435.73
2023-04-29T08:34:20.342Z,98430.73
2023-04-29T08:36:47.489Z,98435.27
2023-04-29T08:39:14.425Z,98434.09
2023-04-29T08:41:43.643Z,98430.82
2023-04-29T08:44:10.623Z,98423.52
2023-04-29T08:46:38.471Z,98415.89
2023-04-29T08:49:05.712Z,98411.77
2023-04-29T08:51:34.129Z,98409.08
2023-04-29T08:54:00.953Z,98414.21
2023-04-29T08:56:29.635Z,98418.23
2023-04-29T08:58:58.466Z,98414.13
2023-04-29T09:01:29.217Z,98415.75
2023-04-29T09:04:03.844Z,98408.48
2023-04-29T09:06:32.833Z,98409.09
2023-04-29T09:09:00.162Z,98404.75
2023-04-29T09:11:27.816Z,98406.34
2023-04-29T09:14:01.808Z,98403.19
2023-04-29T09:16:29.032Z,98400.05
2023-04-29T09:18:56.546Z,98398.39
2023-04-29T09:21:24.674Z,98393.98
2023-04-29T09:23:52.627Z,98390.36
2023-04-29T09:26:20.176Z,98393.25
2023-04-29T09:28:49.186Z,98391.64
2023-04-29T09:31:26.827Z,98387.63
2023-04-29T09:33:54.677Z,98392.08
2023-04-29T09:36:41.634Z,98389.09
2023-04-29T09:39:11.151Z,98383.95
2023-04-29T09:41:41.677Z,98381.58
2023-04-29T09:44:09.465Z,98383.31
2023-04-29T09:46:37.044Z,98381.87
2023-04-29T09:49:07.244Z,98380.59
2023-04-29T09:51:51.270Z,98380.20
2023-04-29T09:54:22.330Z,98372.77
2023-04-29T09:56:51.260Z,98368.63
2023-04-29T09:59:21.341Z,98369.36
2023-04-29T10:01:50.013Z,98364.31
2023-04-29T10:04:18.033Z,98360.95
2023-04-29T10:06:46.198Z,98365.79
2023-04-29T10:09:17.636Z,98359.34
2023-04-29T10:11:45.300Z,98356.02
2023-04-29T10:14:13.827Z,98352.82
2023-04-29T10:16:54.016Z,98351.45
2023-04-29T10:19:25.711Z,98351.38
2023-04-29T10:21:54.451Z,98346.95
2023-04-29T10:24:22.161Z,98343.59
2023-04-29T10:26:50.646Z,98340.02
2023-04-29T10:29:18.622Z,98344.23
2023-04-29T10:31:46.592Z,98344.47
2023-04-29T10:34:13.646Z,98342.40
2023-04-29T10:36:40.837Z,98334.73
2023-04-29T10:39:13.242Z,98331.48
2023-04-29T10:41:46.353Z,98329.85
2023-04-29T10:44:13.709Z,98324.81
2023-04-29T10:46:40.656Z,98325.89
2023-04-29T10:49:07.673Z,98323.88
2023-04-29T10:51:39.155Z,98323.29
2023-04-29T10:54:07.667Z,98325.37
2023-04-29T10:56:41.825Z,98322.48
2023-04-29T10:59:12.777Z,98318.66
2023-04-29T11:01:40.722Z,98315.79
2023-04-29T11:04:08.854Z,98314.02
2023-04-29T11:06:35.634Z,98315.21
2023-04-29T11:09:14.790Z,98311.16
2023-04-29T11:11:43.419Z,98307.90
2023-04-29T11:14:13.320Z,98307.98
2023-04-29T11:16:51.327Z,98312.05
2023-04-29T11:19:18.325Z,98309.11
2023-04-29T11:21:46.601Z,98305.70
2023-04-29T11:24:15.629Z,98303.55
2023-04-29T11:26:43.481Z,98298.77
2023-04-29T11:29:10.334Z,98299.86
2023-04-29T11:31:38.807Z,98299.88
2023-04-29T11:34:06.729Z,98299.02
2023-04-29T11:36:34.181Z,98292.45
2023-04-29T11:39:01.797Z,98289.27
2023-04-29T11:41:28.776Z,98289.00
2023-04-29T11:43:57.141Z,98285.84
2023-04-29T11:46:24.013Z,98289.14
2023-04-29T11:48:50.982Z,98281.35
2023-04-29T11:51:22.092Z,98285.70
2023-04-29T11:53:49.038Z,98285.84
2023-04-29T11:56:15.931Z,98282.16
2023-04-29T11:58:43.970Z,98276.83
2023-04-29T12:01:10.879Z,98280.48
2023-04-29T12:03:37.991Z,98276.70
2023-04-29T12:06:06.614Z,98266.85
2023-04-29T12:08:35.347Z,98264.66
2023-04-29T12:11:02.302Z,98263.10
2023-04-29T12:13:30.216Z,98260.44
2023-04-29T12:15:58.163Z,98259.91
2023-04-29T12:18:27.145Z,98257.88
2023-04-29T12:20:57.764Z,98256.64
2023-04-29T12:23:27.725Z,98260.66
2023-04-29T12:25:56.595Z,98254.92
2023-04-29T12:28:23.857Z,98258.91
2023-04-29T12:30:51.856Z,98262.10
2023-04-29T12:33:21.443Z,98257.27
2023-04-29T12:35:49.820Z,98255.51
2023-04-29T12:38:20.354Z,98254.89
2023-04-29T12:40:47.725Z,98252.31
2023-04-29T12:43:14.668Z,98247.96
2023-04-29T12:45:42.433Z,98244.68
2023-04-29T12:48:18.456Z,98241.98
2023-04-29T12:50:54.759Z,98236.27
2023-04-29T12:53:21.716Z,98237.84
2023-04-29T12:55:48.759Z,98231.16
2023-04-29T12:58:16.115Z,98225.35
2023-04-29T13:00:43.271Z,98227.20
2023-04-29T13:03:10.330Z,98223.72
2023-04-29T13:05:37.891Z,98218.83
2023-04-29T13:08:07.795Z,98220.68
2023-04-29T13:10:35.271Z,98220.97
2023-04-29T13:13:02.242Z,98216.50
2023-04-29T13:15:29.797Z,98218.75
2023-04-29T13:17:58.301Z,98223.59
2023-04-29T13:20:25.343Z,98227.23
2023-04-29T13:22:52.264Z,98221.42
2023-04-29T13:25:19.335Z,98213.33
2023-04-29T13:27:46.412Z,98218.55
2023-04-29T13:30:13.448Z,98211.71
2023-04-29T13:32:46.483Z,98205.59
2023-04-29T13:35:18.493Z,98206.72
2023-04-29T13:37:46.058Z,98202.23
2023-04-29T13:40:19.765Z,98207.77
2023-04-29T13:42:50.418Z,98202.85
2023-04-29T13:45:20.029Z,98200.31
2023-04-29T13:48:06.844Z,98202.59
2023-04-29T13:51:00.869Z,98198.01
2023-04-29T13:53:51.243Z,98198.75
2023-04-29T13:59:08.220Z,98203.48
2023-04-29T14:02:14.656Z,98202.60
2023-04-29T14:04:14.494Z,98200.27
2023-04-29T14:06:42.898Z,98197.42
2023-04-29T14:09:10.234Z,98194.63
2023-04-29T14:11:37.507Z,98192.86
2023-04-29T14:14:04.481Z,98189.50
2023-04-29T14:16:31.712Z,98190.06
2023-04-29T14:18:59.639Z,98187.05
2023-04-29T14:21:27.744Z,98175.99
2023-04-29T14:23:54.799Z,98172.91
2023-04-29T14:26:28.324Z,98170.41
2023-04-29T14:28:59.140Z,98168.31
2023-04-29T14:31:29.704Z,98164.33
2023-04-29T14:33:57.399Z,98163.84
2023-04-29T14:36:24.702Z,98166.48
2023-04-29T14:38:51.912Z,98163.42
2023-04-29T14:41:20.954Z,98167.05
2023-04-29T14:43:48.010Z,98165.70
2023-04-29T14:46:15.357Z,98163.48
2023-04-29T14:48:42.517Z,98162.23
2023-04-29T14:51:09.579Z,98169.37
2023-04-29T14:53:36.524Z,98171.37
2023-04-29T14:56:03.478Z,98174.10
2023-04-29T14:58:31.150Z,98171.59
2023-04-29T15:00:58.192Z,98169.05
2023-04-29T15:03:25.510Z,98168.80
2023-04-29T15:05:52.897Z,98172.42
2023-04-29T15:08:20.071Z,98166.95
2023-04-29T15:10:47.235Z,98168.00
2023-04-29T15:13:14.212Z,98166.48
2023-04-29T15:15:41.460Z,98162.55
2023-04-29T15:18:08.537Z,98165.29
2023-04-29T15:20:36.729Z,98162.19
2023-04-29T15:23:04.950Z,98161.23
2023-04-29T15:25:36.156Z,98158.48
2023-04-29T15:28:04.171Z,98159.90
2023-04-29T15:30:31.130Z,98158.14
2023-04-29T15:32:58.098Z,98157.67
2023-04-29T15:35:24.832Z,98155.05
2023-04-29T15:37:51.775Z,98155.61
2023-04-29T15:40:19.700Z,98160.13
2023-04-29T15:42:46.803Z,98161.13
2023-04-29T15:45:13.855Z,98160.86
2023-04-29T15:47:40.877Z,98165.27
2023-04-29T15:50:09.302Z,98160.67
2023-04-29T15:52:36.554Z,98163.74
2023-04-29T15:55:04.524Z,98162.02
2023-04-29T15:57:31.784Z,98163.41
2023-04-29T15:59:58.734Z,98163.73
2023-04-29T16:02:25.745Z,98163.55
2023-04-29T16:04:52.956Z,98160.92
2023-04-29T16:07:19.996Z,98162.52
2023-04-29T16:09:47.049Z,98160.10
2023-04-29T16:12:14.174Z,98161.78
2023-04-29T16:14:41.261Z,98161.95
2023-04-29T16:17:08.345Z,98161.72
2023-04-29T16:19:37.079Z,98160.05
2023-04-29T16:22:04.575Z,98160.91
2023-04-29T16:24:31.827Z,98164.38
2023-04-29T16:26:59.047Z,98166.30
2023-04-29T16:29:26.350Z,98167.70
2023-04-29T16:31:53.485Z,98166.45
2023-04-29T16:34:20.578Z,98164.64
2023-04-29T16:36:47.618Z,98164.80
2023-04-29T16:39:14.881Z,98166.05
2023-04-29T16:41:41.920Z,98164.80
2023-04-29T16:44:08.968Z,98170.70
2023-04-29T16:46:36.104Z,98167.98
2023-04-29T16:49:03.694Z,98171.32
2023-04-29T16:51:32.993Z,98172.77
2023-04-29T16:54:00.162Z,98172.80
2023-04-29T16:56:27.210Z,98177.23
2023-04-29T16:58:54.258Z,98182.51
2023-04-29T17:01:21.230Z,98183.11
2023-04-29T17:03:48.574Z,98186.44
2023-04-29T17:06:48.057Z,98192.80
2023-04-29T17:09:15.326Z,98193.82
2023-04-29T17:11:42.387Z,98194.38
2023-04-29T17:14:09.438Z,98196.03
2023-04-29T17:16:36.545Z,98200.50
2023-04-29T17:19:03.649Z,98199.28
2023-04-29T17:21:32.019Z,98201.58
2023-04-29T17:23:58.877Z,98200.98
2023-04-29T17:26:26.334Z,98201.38
2023-04-29T17:28:53.595Z,98202.02
2023-04-29T17:31:24.648Z,98199.18
2023-04-29T17:34:04.478Z,98205.36
2023-04-29T17:36:32.552Z,98202.92
2023-04-29T17:38:59.612Z,98202.91
2023-04-29T17:41:26.765Z,98194.63
2023-04-29T17:43:53.818Z,98198.95
2023-04-29T17:46:20.851Z,98201.69
2023-04-29T17:48:47.926Z,98201.45
2023-04-29T17:51:14.974Z,98201.89
2023-04-29T17:53:42.141Z,98198.33
2023-04-29T17:56:09.086Z,98199.54
2023-04-29T17:58:36.035Z,98197.94
2023-04-29T18:01:04.064Z,98200.66
2023-04-29T18:03:31.238Z,98207.84
2023-04-29T18:05:58.449Z,98210.21
2023-04-29T18:08:26.088Z,98213.85
2023-04-29T18:10:52.953Z,98213.69
2023-04-29T18:13:20.305Z,98215.16
2023-04-29T18:15:48.377Z,98210.98
2023-04-29T18:18:15.527Z,98212.88
2023-04-29T18:20:42.897Z,98211.42
2023-04-29T18:23:10.367Z,98213.23
2023-04-29T18:25:38.437Z,98218.64
2023-04-29T18:28:23.099Z,98218.38
2023-04-29T18:30:51.877Z,98222.23
2023-04-29T18:33:18.908Z,98221.45
2023-04-29T18:35:46.128Z,98224.16
2023-04-29T18:38:45.799Z,98227.70
2023-04-29T18:41:13.576Z,98226.59
2023-04-29T18:43:40.709Z,98229.04
2023-04-29T18:46:07.844Z,98231.58
2023-04-29T18:48:36.151Z,98230.11
2023-04-29T18:51:05.050Z,98227.09
2023-04-29T18:53:32.092Z,98228.15
2023-04-29T18:55:59.366Z,98229.83
2023-04-29T18:58:27.021Z,98231.93
2023-04-29T19:00:54.584Z,98229.29
2023-04-29T19:03:22.046Z,98231.30
2023-04-29T19:05:48.865Z,98230.39
2023-04-29T19:08:16.428Z,98234.06
2023-04-29T19:10:44.227Z,98233.04
2023-04-29T19:13:11.550Z,98238.88
2023-04-29T19:15:38.843Z,98233.60
2023-04-29T19:18:05.907Z,98234.04
2023-04-29T19:20:33.873Z,98236.58
2023-04-29T19:23:00.728Z,98238.47
2023-04-29T19:25:27.788Z,98240.62
2023-04-29T19:27:54.829Z,98242.00
2023-04-29T19:30:21.921Z,98243.66
2023-04-29T19:32:49.409Z,98247.36
2023-04-29T19:35:16.501Z,98252.33
2023-04-29T19:37:43.863Z,98252.05
2023-04-29T19:40:11.220Z,98248.36
2023-04-29T19:42:38.690Z,98248.73
2023-04-29T19:45:07.177Z,98241.45
2023-04-29T19:47:34.612Z,98237.09
2023-04-29T19:50:01.893Z,98234.83
2023-04-29T19:52:29.356Z,98232.48
2023-04-29T19:54:56.618Z,98231.69
2023-04-29T19:57:23.598Z,98235.36
2023-04-29T19:59:50.742Z,98233.95
2023-04-29T20:02:18.639Z,98235.55
2023-04-29T20:04:45.959Z,98235.98
2023-04-29T20:07:12.914Z,98237.91
2023-04-29T20:09:39.854Z,98241.89
2023-04-29T20:12:06.816Z,98239.13
2023-04-29T20:14:33.960Z,98244.24
2023-04-29T20:17:01.189Z,98246.75
2023-04-29T20:19:28.683Z,98243.56
2023-04-29T20:21:55.635Z,98237.16
2023-04-29T20:24:22.585Z,98238.17
2023-04-29T20:26:49.843Z,98236.20
2023-04-29T20:29:16.787Z,98234.56
2023-04-29T20:31:43.913Z,98237.73
2023-04-29T20:34:11.408Z,98232.59
2023-04-29T20:36:38.971Z,98237.09
2023-04-29T20:39:06.536Z,98238.52
2023-04-29T20:41:33.389Z,98237.70
2023-04-29T20:44:00.336Z,98244.25
2023-04-29T20:46:27.750Z,98247.52
2023-04-29T20:48:55.069Z,98243.08
2023-04-29T20:51:22.117Z,98238.33
2023-04-29T20:53:49.476Z,98244.12
2023-04-29T20:56:16.440Z,98238.88
2023-04-29T20:58:43.506Z,98241.30
2023-04-29T21:01:10.757Z,98241.06
2023-04-29T21:03:37.892Z,98238.30
2023-04-29T21:06:05.194Z,98239.55
2023-04-29T21:08:32.222Z,98238.08
2023-04-29T21:10:59.565Z,98241.87
2023-04-29T21:13:26.525Z,98240.88
2023-04-29T21:15:53.484Z,98239.08
2023-04-29T21:18:20.588Z,98234.71
2023-04-29T21:20:47.674Z,98236.10
2023-04-29T21:23:46.657Z,98236.27
2023-04-29T21:26:14.524Z,98234.76
2023-04-29T21:28:41.591Z,98237.09
2023-04-29T21:31:14.794Z,98231.89
2023-04-29T21:33:42.951Z,98230.80
2023-04-29T21:36:10.107Z,98233.05
2023-04-29T21:38:37.261Z,98238.41
2023-04-29T21:41:09.537Z,98239.53
2023-04-29T21:43:36.495Z,98240.80
2023-04-29T21:46:35.909Z,98238.80
2023-04-29T21:49:03.545Z,98246.89
2023-04-29T21:51:31.311Z,98250.16
2023-04-29T21:53:58.272Z,98253.56
2023-04-29T21:56:25.419Z,98252.66
2023-04-29T21:58:52.673Z,98257.84
2023-04-29T22:01:39.856Z,98252.92
2023-04-29T22:04:06.948Z,98257.77
2023-04-29T22:06:34.394Z,98257.31
2023-04-29T22:09:02.384Z,98252.10
2023-04-29T22:11:29.465Z,98257.11
2023-04-29T22:13:56.480Z,98256.67
2023-04-29T22:16:23.675Z,98254.99
2023-04-29T22:18:51.002Z,98253.05
2023-04-29T22:21:18.259Z,98251.73
2023-04-29T22:23:45.309Z,98252.94
2023-04-29T22:26:12.382Z,98250.62
2023-04-29T22:28:39.432Z,98253.65
2023-04-29T22:31:06.383Z,98245.60
2023-04-29T22:33:34.555Z,98248.51
2023-04-29T22:36:01.804Z,98245.98
2023-04-29T22:38:29.272Z,98248.72
2023-04-29T22:40:56.370Z,98252.34
2023-04-29T22:43:23.578Z,98254.89
2023-04-29T22:45:53.958Z,98253.94
2023-04-29T22:48:21.173Z,98254.47
2023-04-29T22:50:52.109Z,98253.55
2023-04-29T22:53:19.482Z,98253.52
2023-04-29T22:55:56.368Z,98247.35
2023-04-29T22:58:27.206Z,98246.05
2023-04-29T23:00:56.792Z,98243.05
2023-04-29T23:03:24.165Z,98243.23
2023-04-29T23:05:51.550Z,98240.73
2023-04-29T23:08:18.572Z,98238.33
2023-04-29T23:10:49.224Z,98235.69
2023-04-29T23:13:16.594Z,98236.21
2023-04-29T23:15:43.768Z,98231.82
2023-04-29T23:18:10.943Z,98229.83
2023-04-29T23:20:38.232Z,98229.63
2023-04-29T23:23:05.603Z,98229.61
2023-04-29T23:25:32.459Z,98228.34
2023-04-29T23:27:59.404Z,98233.44
2023-04-29T23:30:26.458Z,98235.23
2023-04-29T23:32:53.646Z,98231.80
2023-04-29T23:35:21.170Z,98237.83
2023-04-29T23:37:48.222Z,98234.24
2023-04-29T23:40:15.697Z,98233.08
2023-04-29T23:42:42.739Z,98230.85
2023-04-29T23:45:10.208Z,98233.59
2023-04-29T23:47:37.482Z,98235.98
2023-04-29T23:50:05.126Z,98238.64
2023-04-29T23:52:32.078Z,98237.66
2023-04-29T23:54:59.450Z,98239.55
2023-04-29T23:57:26.488Z,98238.17
2023-04-29T23:59:53.516Z,98237.71
